createdAt,value
2023-04-24T00:01:03.434Z,45.73
2023-04-24T00:03:32.345Z,45.85
2023-04-24T00:06:02.378Z,45.86
2023-04-24T00:08:32.641Z,46.19
2023-04-24T00:11:02.986Z,46.42
2023-04-24T00:13:31.861Z,45.92
2023-04-24T00:16:00.562Z,45.71
2023-04-24T00:18:29.356Z,46.24
2023-04-24T00:20:57.972Z,46.64
2023-04-24T00:23:26.945Z,47.68
2023-04-24T00:25:57.139Z,47.92
2023-04-24T00:28:26.073Z,49.60
2023-04-24T00:30:54.803Z,50.45
2023-04-24T00:33:23.763Z,50.26
2023-04-24T00:35:52.513Z,50.37
2023-04-24T00:38:21.633Z,50.45
2023-04-24T00:40:51.111Z,49.76
2023-04-24T00:43:21.330Z,49.79
2023-04-24T00:45:50.308Z,49.17
2023-04-24T00:48:20.155Z,47.94
2023-04-24T00:50:49.022Z,47.00
2023-04-24T00:53:17.800Z,46.16
2023-04-24T00:55:47.128Z,45.68
2023-04-24T00:58:16.186Z,45.24
2023-04-24T01:00:47.482Z,45.15
2023-04-24T01:03:17.074Z,45.11
2023-04-24T01:05:45.935Z,44.98
2023-04-24T01:08:16.074Z,45.30
2023-04-24T01:10:47.229Z,45.83
2023-04-24T01:13:17.107Z,46.61
2023-04-24T01:15:49.000Z,46.84
2023-04-24T01:22:01.718Z,48.65
2023-04-24T01:24:33.151Z,48.43
2023-04-24T01:27:02.529Z,48.00
2023-04-24T01:29:31.466Z,47.88
2023-04-24T01:32:00.625Z,47.72
2023-04-24T01:34:30.033Z,48.06
2023-04-24T01:36:58.883Z,47.66
2023-04-24T01:39:29.806Z,47.95
2023-04-24T01:41:59.994Z,47.65
2023-04-24T01:44:29.953Z,47.20
2023-04-24T01:46:58.852Z,47.54
2023-04-24T01:49:27.773Z,46.97
2023-04-24T01:51:56.508Z,47.28
2023-04-24T01:54:25.339Z,47.10
2023-04-24T01:56:54.348Z,47.23
2023-04-24T01:59:27.967Z,47.33
2023-04-24T02:01:56.960Z,48.43
2023-04-24T02:04:25.695Z,48.68
2023-04-24T02:06:54.491Z,49.31
2023-04-24T02:09:23.319Z,49.90
2023-04-24T02:11:53.429Z,50.12
2023-04-24T02:14:22.434Z,50.39
2023-04-24T02:16:52.609Z,50.90
2023-04-24T02:19:24.316Z,51.17
2023-04-24T02:21:53.305Z,51.40
2023-04-24T02:24:22.058Z,51.80
2023-04-24T02:26:50.925Z,51.93
2023-04-24T02:29:19.758Z,52.32
2023-04-24T02:31:48.605Z,52.42
2023-04-24T02:34:18.884Z,52.33
2023-04-24T02:36:47.624Z,52.23
2023-04-24T02:39:19.094Z,52.24
2023-04-24T02:41:48.195Z,52.49
2023-04-24T02:44:19.943Z,52.93
2023-04-24T02:46:48.677Z,53.15
2023-04-24T02:49:20.530Z,52.97
2023-04-24T02:51:49.442Z,53.58
2023-04-24T02:54:18.125Z,53.47
2023-04-24T02:56:47.056Z,53.71
2023-04-24T02:59:15.966Z,53.76
2023-04-24T03:01:45.046Z,54.26
2023-04-24T03:04:14.150Z,53.93
2023-04-24T03:06:44.562Z,53.84
2023-04-24T03:09:14.144Z,53.66
2023-04-24T03:11:42.949Z,53.97
2023-04-24T03:14:11.781Z,53.74
2023-04-24T03:16:40.827Z,53.87
2023-04-24T03:19:10.033Z,53.96
2023-04-24T03:21:48.511Z,53.77
2023-04-24T03:24:17.857Z,53.15
2023-04-24T03:26:46.688Z,53.12
2023-04-24T03:29:31.968Z,52.94
2023-04-24T03:32:00.876Z,52.92
2023-04-24T03:34:29.742Z,52.26
2023-04-24T03:37:01.441Z,52.32
2023-04-24T03:39:31.125Z,52.20
2023-04-24T03:41:59.970Z,51.68
2023-04-24T03:44:42.644Z,50.90
2023-04-24T03:47:11.587Z,51.00
2023-04-24T03:49:40.980Z,51.21
2023-04-24T03:52:13.225Z,50.77
2023-04-24T03:54:42.159Z,51.36
2023-04-24T03:57:11.127Z,51.13
2023-04-24T03:59:45.096Z,51.30
2023-04-24T04:02:19.670Z,51.85
2023-04-24T04:04:49.563Z,51.56
2023-04-24T04:07:20.015Z,52.22
2023-04-24T04:09:49.023Z,52.13
2023-04-24T04:12:18.433Z,52.15
2023-04-24T04:14:47.365Z,51.92
2023-04-24T04:17:16.441Z,51.91
2023-04-24T04:19:45.952Z,51.58
2023-04-24T04:22:14.803Z,51.46
2023-04-24T04:24:49.206Z,51.40
2023-04-24T04:27:19.869Z,51.50
2023-04-24T04:30:00.420Z,51.94
2023-04-24T04:32:29.739Z,51.75
2023-04-24T04:34:58.475Z,51.68
2023-04-24T04:37:29.934Z,51.13
2023-04-24T04:40:13.200Z,51.10
2023-04-24T04:42:54.481Z,50.72
2023-04-24T04:45:25.485Z,50.72
2023-04-24T04:48:05.532Z,50.50
2023-04-24T04:50:34.935Z,50.18
2023-04-24T04:53:08.687Z,50.44
2023-04-24T04:55:42.007Z,50.27
2023-04-24T04:58:17.384Z,50.45
2023-04-24T05:00:47.736Z,50.38
2023-04-24T05:03:24.512Z,50.46
2023-04-24T05:06:00.420Z,50.19
2023-04-24T05:08:30.967Z,50.65
2023-04-24T05:11:03.214Z,51.39
2023-04-24T05:13:39.769Z,52.50
2023-04-24T05:16:19.738Z,53.06
2023-04-24T05:18:50.230Z,53.75
2023-04-24T05:21:23.512Z,54.38
2023-04-24T05:23:54.559Z,55.57
2023-04-24T05:26:39.252Z,56.64
2023-04-24T05:29:10.149Z,58.30
2023-04-24T05:31:39.002Z,58.45
2023-04-24T05:34:07.832Z,58.86
2023-04-24T05:36:41.780Z,58.69
2023-04-24T05:39:11.310Z,58.95
2023-04-24T05:41:41.511Z,59.51
2023-04-24T05:44:10.326Z,60.07
2023-04-24T05:46:39.111Z,60.47
2023-04-24T05:49:07.990Z,60.27
2023-04-24T05:51:38.267Z,61.06
2023-04-24T05:54:07.228Z,61.19
2023-04-24T05:56:35.834Z,61.36
2023-04-24T05:59:08.650Z,61.17
2023-04-24T06:01:38.444Z,61.36
2023-04-24T06:04:16.930Z,59.01
2023-04-24T06:06:46.391Z,58.00
2023-04-24T06:09:15.061Z,58.02
2023-04-24T06:11:43.810Z,59.29
2023-04-24T06:14:17.028Z,60.45
2023-04-24T06:16:56.911Z,60.48
2023-04-24T06:19:38.668Z,60.71
2023-04-24T06:22:09.715Z,61.06
2023-04-24T06:24:39.787Z,60.41
2023-04-24T06:27:09.302Z,59.87
2023-04-24T06:29:39.249Z,59.90
2023-04-24T06:32:09.280Z,59.55
2023-04-24T06:34:38.568Z,59.51
2023-04-24T06:37:07.679Z,59.22
2023-04-24T06:39:36.673Z,57.22
2023-04-24T06:42:05.456Z,55.68
2023-04-24T06:44:42.188Z,54.51
2023-04-24T06:47:15.119Z,54.00
2023-04-24T06:49:44.798Z,54.36
2023-04-24T06:52:13.808Z,53.94
2023-04-24T06:54:44.206Z,54.06
2023-04-24T06:57:12.924Z,53.77
2023-04-24T06:59:41.798Z,53.79
2023-04-24T07:02:12.146Z,53.78
2023-04-24T07:04:41.536Z,53.65
2023-04-24T07:07:14.309Z,53.59
2023-04-24T07:09:44.119Z,53.62
2023-04-24T07:12:13.335Z,53.13
2023-04-24T07:14:42.339Z,52.79
2023-04-24T07:17:14.424Z,53.04
2023-04-24T07:19:44.246Z,52.91
2023-04-24T07:22:18.121Z,53.06
2023-04-24T07:24:46.960Z,53.46
2023-04-24T07:27:16.363Z,53.04
2023-04-24T07:29:45.590Z,53.22
2023-04-24T07:32:16.091Z,53.35
2023-04-24T07:34:44.983Z,53.94
2023-04-24T07:37:13.656Z,53.76
2023-04-24T07:39:42.749Z,54.03
2023-04-24T07:42:11.631Z,53.84
2023-04-24T07:44:40.348Z,53.82
2023-04-24T07:47:09.019Z,53.72
2023-04-24T07:49:40.514Z,53.91
2023-04-24T07:52:09.382Z,53.92
2023-04-24T07:54:38.615Z,54.03
2023-04-24T07:57:09.968Z,53.94
2023-04-24T07:59:38.923Z,53.98
2023-04-24T08:02:07.709Z,54.48
2023-04-24T08:04:36.729Z,53.98
2023-04-24T08:07:06.985Z,54.49
2023-04-24T08:09:35.853Z,54.46
2023-04-24T08:12:04.862Z,54.25
2023-04-24T08:14:33.803Z,54.43
2023-04-24T08:17:03.780Z,54.61
2023-04-24T08:19:32.653Z,54.33
2023-04-24T08:22:01.841Z,54.10
2023-04-24T08:24:32.221Z,54.79
2023-04-24T08:27:01.146Z,54.90
2023-04-24T08:29:30.200Z,55.23
2023-04-24T08:31:59.506Z,55.62
2023-04-24T08:34:28.424Z,56.18
2023-04-24T08:36:57.357Z,56.40
2023-04-24T08:39:26.076Z,57.29
2023-04-24T08:41:57.844Z,57.10
2023-04-24T08:44:26.938Z,57.08
2023-04-24T08:46:56.367Z,57.06
2023-04-24T08:49:27.920Z,57.30
2023-04-24T08:51:58.468Z,57.25
2023-04-24T08:54:28.050Z,57.05
2023-04-24T08:57:05.043Z,57.06
2023-04-24T08:59:34.394Z,56.99
2023-04-24T09:02:05.962Z,57.08
2023-04-24T09:04:37.742Z,56.43
2023-04-24T09:07:09.239Z,56.53
2023-04-24T09:09:41.388Z,56.07
2023-04-24T09:12:12.323Z,56.14
2023-04-24T09:14:43.912Z,56.06
2023-04-24T09:17:12.682Z,55.42
2023-04-24T09:19:41.724Z,55.24
2023-04-24T09:22:12.664Z,55.82
2023-04-24T09:24:41.455Z,56.51
2023-04-24T09:27:14.765Z,56.86
2023-04-24T09:29:56.635Z,56.34
2023-04-24T09:32:27.596Z,55.63
2023-04-24T09:35:12.829Z,55.40
2023-04-24T09:37:43.824Z,55.66
2023-04-24T09:40:15.544Z,54.94
2023-04-24T09:42:48.865Z,54.81
2023-04-24T09:45:17.683Z,54.07
2023-04-24T09:47:46.813Z,53.84
2023-04-24T09:50:20.192Z,53.43
2023-04-24T09:52:58.644Z,52.80
2023-04-24T09:55:27.965Z,52.31
2023-04-24T09:57:58.613Z,52.16
2023-04-24T10:00:28.856Z,53.00
2023-04-24T10:02:59.280Z,53.62
2023-04-24T10:05:32.475Z,53.66
2023-04-24T10:08:04.773Z,54.09
2023-04-24T10:10:34.710Z,54.76
2023-04-24T10:13:08.013Z,55.69
2023-04-24T10:15:38.011Z,55.62
2023-04-24T10:18:07.696Z,55.70
2023-04-24T10:20:37.653Z,56.05
2023-04-24T10:23:07.976Z,56.06
2023-04-24T10:25:38.911Z,56.34
2023-04-24T10:28:10.994Z,56.91
2023-04-24T10:30:45.508Z,57.59
2023-04-24T10:33:14.800Z,57.93
2023-04-24T10:35:50.466Z,58.13
2023-04-24T10:38:26.089Z,58.13
2023-04-24T10:41:00.149Z,57.78
2023-04-24T10:43:30.423Z,57.77
2023-04-24T10:46:06.544Z,57.68
2023-04-24T10:48:36.497Z,57.73
2023-04-24T10:51:05.033Z,57.68
2023-04-24T10:53:33.763Z,57.78
2023-04-24T10:56:07.048Z,57.57
2023-04-24T10:58:45.055Z,57.47
2023-04-24T11:01:27.802Z,57.95
2023-04-24T11:04:01.744Z,57.93
2023-04-24T11:06:34.530Z,57.87
2023-04-24T11:09:08.535Z,57.79
2023-04-24T11:11:41.211Z,57.93
2023-04-24T11:14:11.821Z,58.14
2023-04-24T11:16:47.013Z,58.16
2023-04-24T11:19:30.047Z,58.21
2023-04-24T11:22:02.714Z,58.34
2023-04-24T11:24:34.777Z,58.76
2023-04-24T11:27:15.263Z,58.90
2023-04-24T11:29:49.178Z,58.81
2023-04-24T11:32:31.869Z,58.56
2023-04-24T11:35:02.911Z,58.57
2023-04-24T11:37:36.108Z,59.12
2023-04-24T11:40:07.351Z,59.02
2023-04-24T11:42:40.069Z,59.55
2023-04-24T11:45:15.591Z,60.22
2023-04-24T11:47:46.034Z,60.77
2023-04-24T11:50:17.574Z,61.25
2023-04-24T11:52:51.550Z,62.07
2023-04-24T11:55:30.632Z,61.36
2023-04-24T11:58:02.404Z,61.36
2023-04-24T12:00:35.538Z,61.08
2023-04-24T12:03:09.014Z,61.36
2023-04-24T12:05:38.133Z,61.36
2023-04-24T12:08:07.849Z,61.86
2023-04-24T12:10:37.045Z,62.24
2023-04-24T12:13:06.836Z,62.83
2023-04-24T12:15:36.570Z,62.41
2023-04-24T12:18:06.608Z,62.88
2023-04-24T12:20:35.828Z,63.15
2023-04-24T12:23:04.488Z,63.55
2023-04-24T12:25:35.776Z,64.17
2023-04-24T12:28:15.695Z,64.97
2023-04-24T12:30:50.090Z,64.89
2023-04-24T12:33:20.843Z,64.46
2023-04-24T12:35:51.572Z,64.80
2023-04-24T12:38:25.266Z,64.44
2023-04-24T12:41:05.901Z,64.85
2023-04-24T12:43:35.539Z,64.42
2023-04-24T12:46:06.579Z,64.88
2023-04-24T12:48:35.340Z,65.13
2023-04-24T12:51:04.077Z,65.54
2023-04-24T12:53:32.922Z,65.15
2023-04-24T12:56:01.573Z,65.54
2023-04-24T12:58:30.357Z,65.50
2023-04-24T13:00:59.189Z,64.94
2023-04-24T13:03:29.580Z,65.45
2023-04-24T13:05:58.408Z,65.80
2023-04-24T13:08:27.160Z,65.55
2023-04-24T13:10:55.881Z,66.25
2023-04-24T13:13:24.746Z,66.61
2023-04-24T13:15:53.445Z,66.66
2023-04-24T13:18:22.260Z,67.17
2023-04-24T13:20:52.434Z,67.73
2023-04-24T13:23:21.369Z,68.23
2023-04-24T13:25:50.522Z,68.60
2023-04-24T13:28:19.339Z,68.88
2023-04-24T13:30:51.626Z,69.28
2023-04-24T13:33:21.372Z,69.76
2023-04-24T13:35:51.508Z,69.96
2023-04-24T13:38:22.742Z,70.39
2023-04-24T13:40:51.530Z,70.79
2023-04-24T13:43:20.306Z,71.95
2023-04-24T13:45:49.242Z,72.41
2023-04-24T13:48:18.075Z,72.76
2023-04-24T13:50:49.516Z,73.01
2023-04-24T13:53:19.709Z,73.45
2023-04-24T13:55:48.643Z,74.28
2023-04-24T13:58:17.555Z,74.52
2023-04-24T14:00:46.589Z,75.12
2023-04-24T14:03:15.773Z,75.85
2023-04-24T14:05:45.210Z,76.58
2023-04-24T14:08:13.919Z,77.42
2023-04-24T14:10:45.378Z,77.52
2023-04-24T14:13:14.503Z,78.23
2023-04-24T14:15:43.360Z,78.76
2023-04-24T14:18:12.234Z,79.65
2023-04-24T14:20:41.298Z,80.01
2023-04-24T14:23:10.126Z,80.48
2023-04-24T14:25:39.174Z,80.85
2023-04-24T14:28:09.958Z,81.12
2023-04-24T14:30:42.029Z,81.41
2023-04-24T14:33:10.734Z,81.52
2023-04-24T14:35:39.537Z,81.36
2023-04-24T14:38:08.731Z,81.44
2023-04-24T14:41:04.694Z,81.72
2023-04-24T14:43:28.016Z,81.99
2023-04-24T14:45:57.021Z,82.27
2023-04-24T14:48:25.794Z,82.32
2023-04-24T14:50:54.796Z,81.99
2023-04-24T14:53:23.689Z,81.91
2023-04-24T14:55:52.899Z,82.45
2023-04-24T14:58:21.703Z,82.01
2023-04-24T15:00:53.192Z,82.21
2023-04-24T15:03:23.180Z,82.58
2023-04-24T15:05:52.829Z,82.44
2023-04-24T15:08:21.753Z,82.30
2023-04-24T15:10:51.189Z,82.07
2023-04-24T15:13:20.173Z,82.52
2023-04-24T15:15:49.383Z,82.26
2023-04-24T15:18:19.618Z,82.35
2023-04-24T15:20:48.499Z,82.56
2023-04-24T15:23:17.260Z,83.00
2023-04-24T15:25:46.268Z,83.23
2023-04-24T15:28:15.154Z,84.02
2023-04-24T15:30:44.060Z,84.48
2023-04-24T15:33:12.877Z,84.55
2023-04-24T15:35:43.073Z,85.24
2023-04-24T15:38:11.889Z,85.15
2023-04-24T15:40:40.603Z,85.57
2023-04-24T15:43:09.326Z,85.33
2023-04-24T15:45:38.029Z,85.34
2023-04-24T15:48:06.896Z,86.16
2023-04-24T15:50:35.585Z,85.91
2023-04-24T15:53:05.770Z,86.04
2023-04-24T15:55:34.856Z,86.08
2023-04-24T15:58:03.659Z,86.06
2023-04-24T16:00:34.728Z,86.07
2023-04-24T16:03:05.387Z,85.86
2023-04-24T16:05:36.234Z,86.30
2023-04-24T16:08:06.336Z,86.18
2023-04-24T16:10:35.178Z,86.23
2023-04-24T16:13:05.375Z,85.90
2023-04-24T16:15:35.026Z,86.28
2023-04-24T16:18:04.155Z,85.88
2023-04-24T16:20:32.947Z,85.90
2023-04-24T16:23:01.691Z,85.92
2023-04-24T16:25:31.881Z,85.76
2023-04-24T16:28:01.045Z,85.82
2023-04-24T16:30:29.876Z,85.24
2023-04-24T16:32:58.705Z,85.48
2023-04-24T16:35:27.661Z,85.47
2023-04-24T16:37:56.464Z,85.74
2023-04-24T16:40:25.203Z,85.78
2023-04-24T16:42:55.669Z,86.41
2023-04-24T16:45:24.400Z,86.53
2023-04-24T16:47:53.345Z,87.20
2023-04-24T16:50:22.467Z,87.18
2023-04-24T16:52:51.331Z,87.51
2023-04-24T16:55:20.143Z,87.31
2023-04-24T16:57:49.142Z,87.49
2023-04-24T17:00:19.989Z,87.55
2023-04-24T17:02:51.051Z,87.52
2023-04-24T17:05:23.531Z,87.50
2023-04-24T17:07:52.844Z,87.78
2023-04-24T17:10:21.799Z,87.81
2023-04-24T17:12:51.257Z,88.27
2023-04-24T17:15:21.470Z,88.05
2023-04-24T17:17:51.383Z,88.09
2023-04-24T17:20:22.942Z,88.34
2023-04-24T17:22:53.305Z,88.11
2023-04-24T17:25:22.196Z,88.09
2023-04-24T17:27:51.220Z,87.87
2023-04-24T17:30:21.763Z,88.03
2023-04-24T17:32:50.899Z,88.45
2023-04-24T17:35:21.476Z,88.16
2023-04-24T17:37:51.444Z,88.55
2023-04-24T17:40:22.689Z,88.40
2023-04-24T17:42:51.783Z,88.77
2023-04-24T17:45:21.939Z,88.76
2023-04-24T17:47:51.822Z,88.88
2023-04-24T17:50:20.964Z,88.85
2023-04-24T17:52:49.662Z,89.05
2023-04-24T17:55:18.494Z,88.95
2023-04-24T17:57:47.386Z,89.18
2023-04-24T18:00:17.161Z,89.59
2023-04-24T18:02:47.202Z,89.37
2023-04-24T18:05:16.203Z,89.45
2023-04-24T18:07:44.812Z,89.66
2023-04-24T18:10:13.681Z,90.08
2023-04-24T18:12:42.449Z,90.00
2023-04-24T18:15:14.741Z,89.83
2023-04-24T18:17:44.300Z,89.78
2023-04-24T18:20:16.852Z,90.10
2023-04-24T18:22:46.460Z,89.87
2023-04-24T18:25:15.569Z,90.26
2023-04-24T18:27:44.379Z,90.11
2023-04-24T18:30:14.915Z,89.82
2023-04-24T18:32:44.288Z,89.84
2023-04-24T18:35:14.818Z,89.58
2023-04-24T18:37:45.520Z,89.54
2023-04-24T18:40:14.919Z,89.70
2023-04-24T18:42:45.204Z,89.43
2023-04-24T18:45:15.317Z,89.46
2023-04-24T18:47:44.440Z,89.66
2023-04-24T18:50:15.002Z,89.49
2023-04-24T18:52:44.290Z,89.64
2023-04-24T18:55:12.992Z,89.64
2023-04-24T18:57:41.736Z,89.38
2023-04-24T19:00:11.392Z,89.54
2023-04-24T19:02:40.062Z,89.14
2023-04-24T19:05:10.704Z,89.61
2023-04-24T19:07:42.637Z,89.67
2023-04-24T19:10:13.705Z,89.57
2023-04-24T19:12:42.592Z,89.60
2023-04-24T19:15:13.275Z,89.66
2023-04-24T19:17:42.278Z,89.67
2023-04-24T19:20:11.745Z,89.38
2023-04-24T19:22:42.511Z,89.56
2023-04-24T19:25:11.443Z,89.57
2023-04-24T19:27:40.247Z,89.68
2023-04-24T19:30:10.117Z,89.54
2023-04-24T19:32:39.147Z,89.37
2023-04-24T19:35:08.336Z,89.33
2023-04-24T19:37:37.410Z,89.12
2023-04-24T19:40:09.204Z,88.85
2023-04-24T19:42:43.758Z,88.68
2023-04-24T19:45:13.958Z,88.56
2023-04-24T19:47:43.469Z,88.29
2023-04-24T19:50:12.462Z,88.15
2023-04-24T19:52:41.287Z,88.31
2023-04-24T19:55:13.472Z,88.20
2023-04-24T19:57:42.675Z,88.33
2023-04-24T20:00:12.597Z,88.37
2023-04-24T20:02:41.753Z,88.26
2023-04-24T20:05:11.860Z,88.08
2023-04-24T20:07:40.944Z,87.77
2023-04-24T20:10:12.206Z,87.82
2023-04-24T20:12:41.354Z,87.87
2023-04-24T20:15:11.246Z,87.75
2023-04-24T20:17:40.064Z,87.79
2023-04-24T20:20:11.778Z,88.00
2023-04-24T20:22:40.718Z,87.96
2023-04-24T20:25:13.412Z,87.65
2023-04-24T20:27:42.781Z,87.67
2023-04-24T20:30:14.373Z,87.32
2023-04-24T20:32:43.696Z,87.57
2023-04-24T20:35:13.331Z,87.20
2023-04-24T20:37:41.904Z,87.57
2023-04-24T20:40:14.619Z,87.48
2023-04-24T20:42:44.172Z,87.20
2023-04-24T20:45:13.298Z,86.92
2023-04-24T20:47:42.171Z,86.96
2023-04-24T20:50:12.066Z,87.03
2023-04-24T20:52:40.455Z,87.11
2023-04-24T20:55:12.001Z,86.74
2023-04-24T20:57:40.950Z,86.88
2023-04-24T21:00:11.222Z,87.15
2023-04-24T21:02:40.256Z,86.68
2023-04-24T21:05:10.309Z,86.84
2023-04-24T21:07:39.584Z,86.70
2023-04-24T21:10:09.701Z,86.56
2023-04-24T21:12:40.206Z,86.70
2023-04-24T21:15:09.772Z,86.83
2023-04-24T21:17:39.873Z,86.74
2023-04-24T21:20:10.469Z,86.78
2023-04-24T21:22:39.611Z,86.95
2023-04-24T21:25:09.896Z,86.91
2023-04-24T21:27:40.449Z,86.75
2023-04-24T21:30:10.328Z,86.96
2023-04-24T21:32:40.967Z,86.83
2023-04-24T21:35:10.640Z,86.44
2023-04-24T21:37:40.683Z,86.22
2023-04-24T21:40:11.859Z,86.06
2023-04-24T21:42:42.303Z,85.91
2023-04-24T21:45:12.318Z,85.61
2023-04-24T21:47:41.167Z,85.39
2023-04-24T21:50:11.413Z,85.39
2023-04-24T21:52:40.730Z,85.51
2023-04-24T21:55:10.070Z,85.34
2023-04-24T21:57:38.923Z,85.36
2023-04-24T22:00:11.577Z,85.38
2023-04-24T22:02:43.169Z,85.49
2023-04-24T22:05:16.013Z,85.08
2023-04-24T22:07:47.813Z,85.11
2023-04-24T22:10:19.186Z,84.93
2023-04-24T22:12:48.414Z,84.86
2023-04-24T22:15:18.837Z,84.78
2023-04-24T22:17:49.853Z,84.30
2023-04-24T22:20:18.935Z,84.12
2023-04-24T22:22:47.760Z,84.03
2023-04-24T22:25:16.793Z,83.98
2023-04-24T22:27:45.899Z,84.02
2023-04-24T22:30:15.108Z,84.32
2023-04-24T22:32:45.500Z,84.56
2023-04-24T22:35:14.308Z,84.13
2023-04-24T22:37:43.154Z,84.28
2023-04-24T22:40:13.252Z,84.44
2023-04-24T22:42:42.473Z,84.36
2023-04-24T22:45:13.721Z,84.53
2023-04-24T22:47:43.000Z,84.51
2023-04-24T22:50:13.198Z,84.69
2023-04-24T22:52:44.299Z,84.94
2023-04-24T22:55:13.598Z,84.98
2023-04-24T22:57:42.499Z,84.92
2023-04-24T23:00:13.932Z,84.91
2023-04-24T23:02:43.447Z,84.84
2023-04-24T23:05:13.781Z,84.98
2023-04-24T23:07:44.225Z,85.07
2023-04-24T23:10:13.400Z,85.05
2023-04-24T23:12:42.249Z,85.12
2023-04-24T23:15:12.270Z,84.93
2023-04-24T23:17:41.761Z,84.96
2023-04-24T23:20:15.089Z,85.14
2023-04-24T23:22:46.814Z,85.11
2023-04-24T23:25:16.001Z,85.09
2023-04-24T23:27:44.754Z,85.12
2023-04-24T23:30:14.133Z,85.29
2023-04-24T23:32:44.435Z,85.42
2023-04-24T23:35:15.268Z,85.24
2023-04-24T23:37:44.325Z,85.41
2023-04-24T23:40:13.837Z,85.31
2023-04-24T23:42:43.127Z,85.52
2023-04-24T23:45:12.707Z,85.51
2023-04-24T23:47:41.702Z,85.65
2023-04-24T23:50:11.790Z,85.53
2023-04-24T23:52:42.073Z,85.69
2023-04-24T23:55:11.576Z,85.25
2023-04-24T23:57:40.273Z,84.83
